createdAt,value
2024-05-09T00:00:36.337Z,99.90
2024-05-09T00:03:08.029Z,99.90
2024-05-09T00:05:35.972Z,99.90
2024-05-09T00:08:03.534Z,99.90
2024-05-09T00:10:36.306Z,99.90
2024-05-09T00:13:05.908Z,99.90
2024-05-09T00:15:33.943Z,99.90
2024-05-09T00:18:01.609Z,99.90
2024-05-09T00:20:36.835Z,99.90
2024-05-09T00:23:07.512Z,99.90
2024-05-09T00:25:35.427Z,99.90
2024-05-09T00:28:02.808Z,99.90
2024-05-09T00:30:34.568Z,99.90
2024-05-09T00:33:05.178Z,99.90
2024-05-09T00:35:33.070Z,99.90
2024-05-09T00:38:00.126Z,99.90
2024-05-09T00:40:37.604Z,99.90
2024-05-09T00:43:07.255Z,99.90
2024-05-09T00:45:34.901Z,99.90
2024-05-09T00:48:05.207Z,99.90
2024-05-09T00:50:38.008Z,99.90
2024-05-09T00:53:06.688Z,99.90
2024-05-09T00:55:35.463Z,99.90
2024-05-09T00:58:03.172Z,99.90
2024-05-09T01:00:37.873Z,99.90
2024-05-09T01:03:07.773Z,99.90
2024-05-09T01:05:35.647Z,99.90
2024-05-09T01:08:03.373Z,99.90
2024-05-09T01:10:34.636Z,99.90
2024-05-09T01:13:06.277Z,99.90
2024-05-09T01:15:34.620Z,99.90
2024-05-09T01:18:06.235Z,99.90
2024-05-09T01:20:40.954Z,99.90
2024-05-09T01:23:11.145Z,99.90
2024-05-09T01:25:38.292Z,99.90
2024-05-09T01:28:05.817Z,99.90
2024-05-09T01:30:35.730Z,99.90
2024-05-09T01:33:06.173Z,99.90
2024-05-09T01:35:34.778Z,99.90
2024-05-09T01:38:01.624Z,99.90
2024-05-09T01:40:37.061Z,99.90
2024-05-09T01:43:06.906Z,99.90
2024-05-09T01:45:33.872Z,99.90
2024-05-09T01:48:01.330Z,99.90
2024-05-09T01:50:37.845Z,99.90
2024-05-09T01:53:08.844Z,99.90
2024-05-09T01:55:35.762Z,99.90
2024-05-09T01:58:02.472Z,99.90
2024-05-09T02:00:38.155Z,99.90
2024-05-09T02:03:15.577Z,99.90
2024-05-09T02:05:46.551Z,99.90
2024-05-09T02:08:15.673Z,99.90
2024-05-09T02:10:44.308Z,99.90
2024-05-09T02:13:11.354Z,99.90
2024-05-09T02:15:38.368Z,99.90
2024-05-09T02:18:05.761Z,99.90
2024-05-09T02:20:36.111Z,99.90
2024-05-09T02:23:05.200Z,99.90
2024-05-09T02:25:32.665Z,99.90
2024-05-09T02:27:59.738Z,99.90
2024-05-09T02:30:36.522Z,99.90
2024-05-09T02:33:08.074Z,99.90
2024-05-09T02:35:36.025Z,99.90
2024-05-09T02:38:03.161Z,99.90
2024-05-09T02:40:36.679Z,99.90
2024-05-09T02:43:06.530Z,99.90
2024-05-09T02:45:33.570Z,99.90
2024-05-09T02:48:01.696Z,99.90
2024-05-09T02:50:37.057Z,99.90
2024-05-09T02:53:06.984Z,99.90
2024-05-09T02:55:34.482Z,99.90
2024-05-09T02:58:01.349Z,99.90
2024-05-09T03:00:36.757Z,99.90
2024-05-09T03:03:08.606Z,99.90
2024-05-09T03:05:36.859Z,99.90
2024-05-09T03:08:04.340Z,99.90
2024-05-09T03:10:36.006Z,99.90
2024-05-09T03:13:08.759Z,99.90
2024-05-09T03:15:35.941Z,99.90
2024-05-09T03:18:03.698Z,99.90
2024-05-09T03:20:34.610Z,99.90
2024-05-09T03:23:03.608Z,99.90
2024-05-09T03:25:31.041Z,99.90
2024-05-09T03:27:57.887Z,99.90
2024-05-09T03:30:36.700Z,99.90
2024-05-09T03:33:13.925Z,99.90
2024-05-09T03:35:42.112Z,99.90
2024-05-09T03:38:09.556Z,99.90
2024-05-09T03:40:37.138Z,99.90
2024-05-09T03:43:04.066Z,99.90
2024-05-09T03:45:30.827Z,99.90
2024-05-09T03:47:57.782Z,99.90
2024-05-09T03:50:30.239Z,99.90
2024-05-09T03:53:01.861Z,99.90
2024-05-09T03:55:28.943Z,99.90
2024-05-09T03:57:55.767Z,99.90
2024-05-09T04:00:31.082Z,99.90
2024-05-09T04:03:05.904Z,99.90
2024-05-09T04:05:34.683Z,99.90
2024-05-09T04:08:01.893Z,99.90
2024-05-09T04:10:33.487Z,99.90
2024-05-09T04:13:02.430Z,99.90
2024-05-09T04:15:29.537Z,99.90
2024-05-09T04:17:56.656Z,99.90
2024-05-09T04:20:34.334Z,99.90
2024-05-09T04:23:07.172Z,99.90
2024-05-09T04:25:34.787Z,99.90
2024-05-09T04:28:01.704Z,99.90
2024-05-09T04:30:37.109Z,99.90
2024-05-09T04:33:08.833Z,99.90
2024-05-09T04:35:37.940Z,99.90
2024-05-09T04:38:05.758Z,99.90
2024-05-09T04:40:35.808Z,99.90
2024-05-09T04:43:05.284Z,99.90
2024-05-09T04:45:32.224Z,99.90
2024-05-09T04:47:59.301Z,99.90
2024-05-09T04:50:35.382Z,99.90
2024-05-09T04:53:06.012Z,99.90
2024-05-09T04:55:33.333Z,99.90
2024-05-09T04:58:00.207Z,99.90
2024-05-09T05:00:34.904Z,99.90
2024-05-09T05:03:10.208Z,99.90
2024-05-09T05:05:42.760Z,99.90
2024-05-09T05:08:14.713Z,99.90
2024-05-09T05:10:43.150Z,99.90
2024-05-09T05:13:21.070Z,99.90
2024-05-09T05:15:50.352Z,99.90
2024-05-09T05:18:17.715Z,99.90
2024-05-09T05:20:45.180Z,99.90
2024-05-09T05:23:14.120Z,99.90
2024-05-09T05:25:44.899Z,99.90
2024-05-09T05:28:11.725Z,99.90
2024-05-09T05:30:39.140Z,99.90
2024-05-09T05:33:07.293Z,99.90
2024-05-09T05:35:34.933Z,99.90
2024-05-09T05:38:02.556Z,99.90
2024-05-09T05:40:37.044Z,99.90
2024-05-09T05:43:06.351Z,99.90
2024-05-09T05:45:33.171Z,99.90
2024-05-09T05:48:02.795Z,99.90
2024-05-09T05:50:35.717Z,99.90
2024-05-09T05:53:06.118Z,99.90
2024-05-09T05:55:33.177Z,99.90
2024-05-09T05:58:00.978Z,99.90
2024-05-09T06:00:34.809Z,99.90
2024-05-09T06:03:05.769Z,99.90
2024-05-09T06:05:33.026Z,99.90
2024-05-09T06:08:00.079Z,99.90
2024-05-09T06:10:36.969Z,99.90
2024-05-09T06:13:06.740Z,99.90
2024-05-09T06:15:33.567Z,99.90
2024-05-09T06:18:00.669Z,99.90
2024-05-09T06:20:35.065Z,99.90
2024-05-09T06:23:05.201Z,99.90
2024-05-09T06:25:32.416Z,99.90
2024-05-09T06:28:02.410Z,99.90
2024-05-09T06:30:37.617Z,99.90
2024-05-09T06:33:08.682Z,99.90
2024-05-09T06:35:36.209Z,99.90
2024-05-09T06:38:03.200Z,99.90
2024-05-09T06:40:37.193Z,99.90
2024-05-09T06:43:11.447Z,99.90
2024-05-09T06:45:39.669Z,99.90
2024-05-09T06:48:07.466Z,99.90
2024-05-09T06:50:37.937Z,99.90
2024-05-09T06:53:06.657Z,99.90
2024-05-09T06:55:33.518Z,99.90
2024-05-09T06:58:00.417Z,99.90
2024-05-09T07:00:35.099Z,99.90
2024-05-09T07:03:09.591Z,99.90
2024-05-09T07:05:37.091Z,99.90
2024-05-09T07:08:04.817Z,99.90
2024-05-09T07:10:35.175Z,99.90
2024-05-09T07:13:02.979Z,99.90
2024-05-09T07:15:29.786Z,99.90
2024-05-09T07:17:57.020Z,99.90
2024-05-09T07:20:32.274Z,99.90
2024-05-09T07:23:05.299Z,99.90
2024-05-09T07:25:32.370Z,99.90
2024-05-09T07:27:59.197Z,99.90
2024-05-09T07:30:31.097Z,99.90
2024-05-09T07:33:01.643Z,99.90
2024-05-09T07:35:29.577Z,99.90
2024-05-09T07:37:56.634Z,99.90
2024-05-09T07:40:32.490Z,99.90
2024-05-09T07:43:07.703Z,99.90
2024-05-09T07:52:32.525Z,99.90
2024-05-09T07:55:55.448Z,98.90
2024-05-09T07:58:27.776Z,98.30
2024-05-09T08:00:55.032Z,97.90
2024-05-09T08:03:22.705Z,97.50
2024-05-09T08:05:52.340Z,97.80
2024-05-09T08:08:19.163Z,97.80
2024-05-09T08:10:46.503Z,97.40
2024-05-09T08:13:13.502Z,97.50
2024-05-09T08:15:40.493Z,97.10
2024-05-09T08:18:11.245Z,96.70
2024-05-09T08:20:38.975Z,96.90
2024-05-09T08:23:06.017Z,96.80
2024-05-09T08:25:32.870Z,96.70
2024-05-09T08:27:59.895Z,96.90
2024-05-09T08:30:33.461Z,96.90
2024-05-09T08:33:04.329Z,96.00
2024-05-09T08:35:31.979Z,95.70
2024-05-09T08:37:59.050Z,95.60
2024-05-09T08:40:33.390Z,93.70
2024-05-09T08:43:06.718Z,92.10
2024-05-09T08:45:35.535Z,93.20
2024-05-09T08:48:06.287Z,93.60
2024-05-09T08:50:38.778Z,93.40
2024-05-09T08:53:07.504Z,93.50
2024-05-09T08:55:35.864Z,93.00
2024-05-09T08:58:05.012Z,92.10
2024-05-09T09:00:37.006Z,91.80
2024-05-09T09:03:09.241Z,91.00
2024-05-09T09:05:39.527Z,90.40
2024-05-09T09:08:08.501Z,90.30
2024-05-09T09:10:35.856Z,90.20
2024-05-09T09:13:04.202Z,88.40
2024-05-09T09:15:31.418Z,84.70
2024-05-09T09:17:59.760Z,84.20
2024-05-09T09:20:34.157Z,85.70
2024-05-09T09:23:03.914Z,85.10
2024-05-09T09:25:30.876Z,86.20
2024-05-09T09:28:00.678Z,83.50
2024-05-09T09:30:35.258Z,80.70
2024-05-09T09:33:11.264Z,80.90
2024-05-09T09:35:40.208Z,82.60
2024-05-09T09:38:07.933Z,82.60
2024-05-09T09:40:40.668Z,82.20
2024-05-09T09:43:16.673Z,81.30
2024-05-09T09:45:45.071Z,82.00
2024-05-09T09:48:14.609Z,82.30
2024-05-09T09:50:42.361Z,82.60
2024-05-09T09:53:10.497Z,80.00
2024-05-09T09:55:39.723Z,79.50
2024-05-09T09:58:09.663Z,80.50
2024-05-09T10:00:39.246Z,80.60
2024-05-09T10:03:06.844Z,80.60
2024-05-09T10:05:34.578Z,78.10
2024-05-09T10:08:05.745Z,76.70
2024-05-09T10:10:36.604Z,77.20
2024-05-09T10:13:07.674Z,77.30
2024-05-09T10:15:55.738Z,77.50
2024-05-09T10:18:28.289Z,77.30
2024-05-09T10:20:57.480Z,76.80
2024-05-09T10:23:26.006Z,75.20
2024-05-09T10:25:57.519Z,75.80
2024-05-09T10:28:28.450Z,75.80
2024-05-09T10:31:14.000Z,74.70
2024-05-09T10:33:51.542Z,73.80
2024-05-09T10:36:24.367Z,73.80
2024-05-09T10:38:52.863Z,73.80
2024-05-09T10:41:21.462Z,74.80
2024-05-09T10:43:48.657Z,73.80
2024-05-09T10:46:15.962Z,73.30
2024-05-09T10:48:43.544Z,74.10
2024-05-09T10:51:10.827Z,74.90
2024-05-09T10:53:45.324Z,73.40
2024-05-09T10:56:14.021Z,74.10
2024-05-09T10:58:41.027Z,75.20
2024-05-09T11:01:09.059Z,73.70
2024-05-09T11:03:37.087Z,73.50
2024-05-09T11:06:05.361Z,73.60
2024-05-09T11:08:32.941Z,71.10
2024-05-09T11:11:00.172Z,72.00
2024-05-09T11:13:35.074Z,74.30
2024-05-09T11:16:03.493Z,71.00
2024-05-09T11:18:35.252Z,70.10
2024-05-09T11:21:12.415Z,71.10
2024-05-09T11:23:39.626Z,71.20
2024-05-09T11:26:07.350Z,70.90
2024-05-09T11:28:34.055Z,70.40
2024-05-09T11:31:09.080Z,68.60
2024-05-09T11:33:38.780Z,68.70
2024-05-09T11:36:07.140Z,65.90
2024-05-09T11:38:33.973Z,66.20
2024-05-09T11:41:01.415Z,65.10
2024-05-09T11:43:28.343Z,63.30
2024-05-09T11:45:59.522Z,63.40
2024-05-09T11:48:27.028Z,64.50
2024-05-09T11:50:55.522Z,64.10
2024-05-09T11:53:22.790Z,63.90
2024-05-09T11:55:49.823Z,64.50
2024-05-09T11:58:18.188Z,63.40
2024-05-09T12:00:46.374Z,64.30
2024-05-09T12:03:13.622Z,63.80
2024-05-09T12:05:40.679Z,62.70
2024-05-09T12:08:07.816Z,63.40
2024-05-09T12:10:36.233Z,61.60
2024-05-09T12:13:05.636Z,61.50
2024-05-09T12:15:36.667Z,61.30
2024-05-09T12:18:04.884Z,60.00
2024-05-09T12:20:37.147Z,59.50
2024-05-09T12:23:08.840Z,59.70
2024-05-09T12:25:37.303Z,58.20
2024-05-09T12:28:04.478Z,59.00
2024-05-09T12:30:36.822Z,58.40
2024-05-09T12:33:08.842Z,57.10
2024-05-09T12:35:36.232Z,56.90
2024-05-09T12:38:03.105Z,56.50
2024-05-09T12:40:35.938Z,57.70
2024-05-09T12:43:06.467Z,57.20
2024-05-09T12:45:33.683Z,56.90
2024-05-09T12:48:00.799Z,58.20
2024-05-09T12:50:32.582Z,59.20
2024-05-09T12:53:02.109Z,58.20
2024-05-09T12:55:33.991Z,57.80
2024-05-09T12:58:08.308Z,56.40
2024-05-09T13:00:35.592Z,57.30
2024-05-09T13:03:02.744Z,58.20
2024-05-09T13:05:29.966Z,58.30
2024-05-09T13:07:57.397Z,58.10
2024-05-09T13:10:31.266Z,58.70
2024-05-09T13:13:00.761Z,58.80
2024-05-09T13:15:28.381Z,60.00
2024-05-09T13:17:58.128Z,59.00
2024-05-09T13:20:32.766Z,57.80
2024-05-09T13:23:06.697Z,57.60
2024-05-09T13:25:34.899Z,57.40
2024-05-09T13:28:02.608Z,57.70
2024-05-09T13:30:38.352Z,57.00
2024-05-09T13:33:09.317Z,57.70
2024-05-09T13:35:36.480Z,57.20
2024-05-09T13:38:04.644Z,58.40
2024-05-09T13:40:34.709Z,58.40
2024-05-09T13:43:04.916Z,58.30
2024-05-09T13:45:32.412Z,57.90
2024-05-09T13:47:59.559Z,58.60
2024-05-09T13:50:33.649Z,58.80
2024-05-09T13:53:03.349Z,59.30
2024-05-09T13:55:30.134Z,58.40
2024-05-09T13:57:57.144Z,58.90
2024-05-09T14:02:54.439Z,60.00
2024-05-09T14:05:21.510Z,58.90
2024-05-09T14:07:48.824Z,58.10
2024-05-09T14:10:22.997Z,58.00
2024-05-09T14:12:55.461Z,57.60
2024-05-09T14:15:22.392Z,60.10
2024-05-09T14:17:49.405Z,57.90
2024-05-09T14:20:23.882Z,56.90
2024-05-09T14:22:57.408Z,57.60
2024-05-09T14:25:26.327Z,56.80
2024-05-09T14:27:53.374Z,57.00
2024-05-09T14:30:29.752Z,57.50
2024-05-09T14:33:01.775Z,57.70
2024-05-09T14:35:28.637Z,58.90
2024-05-09T14:37:55.350Z,58.30
2024-05-09T14:40:35.453Z,58.20
2024-05-09T14:43:07.751Z,57.40
2024-05-09T14:45:34.903Z,57.90
2024-05-09T14:48:02.833Z,57.90
2024-05-09T14:50:35.902Z,56.90
2024-05-09T14:53:06.786Z,57.90
2024-05-09T14:55:36.721Z,57.90
2024-05-09T14:58:06.573Z,57.90
2024-05-09T15:00:40.122Z,58.10
2024-05-09T15:03:09.118Z,57.70
2024-05-09T15:05:35.999Z,58.10
2024-05-09T15:08:06.151Z,59.30
2024-05-09T15:10:35.769Z,58.90
2024-05-09T15:13:04.292Z,59.20
2024-05-09T15:15:31.381Z,59.10
2024-05-09T15:17:58.460Z,57.90
2024-05-09T15:20:33.061Z,58.50
2024-05-09T15:23:03.075Z,58.90
2024-05-09T15:25:30.192Z,59.20
2024-05-09T15:27:57.362Z,58.90
2024-05-09T15:30:30.410Z,58.30
2024-05-09T15:33:00.127Z,58.70
2024-05-09T15:35:27.199Z,59.70
2024-05-09T15:37:54.329Z,59.30
2024-05-09T15:40:30.990Z,59.20
2024-05-09T15:43:05.556Z,59.60
2024-05-09T15:45:32.740Z,58.70
2024-05-09T15:48:00.029Z,58.90
2024-05-09T15:50:35.833Z,58.60
2024-05-09T15:53:07.235Z,58.80
2024-05-09T15:55:35.002Z,58.80
2024-05-09T15:58:03.201Z,58.30
2024-05-09T16:00:37.555Z,58.80
2024-05-09T16:03:12.417Z,59.50
2024-05-09T16:05:41.003Z,58.70
2024-05-09T16:08:08.492Z,58.60
2024-05-09T16:10:37.076Z,58.20
2024-05-09T16:13:05.030Z,58.00
2024-05-09T16:15:32.199Z,58.40
2024-05-09T16:17:59.949Z,57.40
2024-05-09T16:20:35.022Z,57.70
2024-05-09T16:23:07.594Z,56.60
2024-05-09T16:25:34.546Z,56.60
2024-05-09T16:28:07.074Z,56.50
2024-05-09T16:30:36.792Z,56.60
2024-05-09T16:33:05.335Z,56.20
2024-05-09T16:35:32.952Z,56.80
2024-05-09T16:38:01.820Z,56.80
2024-05-09T16:40:36.376Z,57.20
2024-05-09T16:43:07.189Z,57.00
2024-05-09T16:45:34.462Z,56.60
2024-05-09T16:48:01.972Z,56.90
2024-05-09T16:50:33.471Z,57.70
2024-05-09T16:53:03.019Z,58.10
2024-05-09T16:55:30.270Z,58.50
2024-05-09T16:57:58.018Z,59.10
2024-05-09T17:00:35.873Z,58.90
2024-05-09T17:03:09.893Z,59.00
2024-05-09T17:05:37.794Z,57.50
2024-05-09T17:08:05.510Z,57.00
2024-05-09T17:10:34.475Z,56.90
2024-05-09T17:13:03.579Z,57.00
2024-05-09T17:15:32.842Z,57.20
2024-05-09T17:18:00.299Z,57.40
2024-05-09T17:20:33.059Z,57.50
2024-05-09T17:23:04.850Z,57.10
2024-05-09T17:25:32.538Z,56.90
2024-05-09T17:28:06.928Z,56.60
2024-05-09T17:30:37.464Z,56.50
2024-05-09T17:33:07.806Z,56.20
2024-05-09T17:35:36.458Z,56.20
2024-05-09T17:38:04.528Z,56.50
2024-05-09T17:40:35.376Z,56.80
2024-05-09T17:43:05.322Z,57.10
2024-05-09T17:45:32.998Z,57.40
2024-05-09T17:48:00.781Z,57.70
2024-05-09T17:50:34.978Z,57.90
2024-05-09T17:53:04.872Z,58.20
2024-05-09T17:55:32.042Z,58.60
2024-05-09T17:57:59.222Z,59.00
2024-05-09T18:02:56.204Z,59.50
2024-05-09T18:05:23.112Z,59.80
2024-05-09T18:07:50.138Z,60.10
2024-05-09T18:10:25.198Z,60.40
2024-05-09T18:12:56.628Z,60.90
2024-05-09T18:15:24.193Z,61.60
2024-05-09T18:17:51.977Z,62.00
2024-05-09T18:20:28.624Z,62.70
2024-05-09T18:23:04.720Z,63.20
2024-05-09T18:25:31.482Z,64.40
2024-05-09T18:27:58.454Z,65.00
2024-05-09T18:30:32.207Z,65.40
2024-05-09T18:33:02.517Z,65.90
2024-05-09T18:35:29.587Z,66.60
2024-05-09T18:37:56.576Z,67.20
2024-05-09T18:40:32.649Z,67.90
2024-05-09T18:43:03.496Z,68.10
2024-05-09T18:45:33.799Z,68.60
2024-05-09T18:48:00.837Z,69.00
2024-05-09T18:50:35.333Z,69.50
2024-05-09T18:53:13.375Z,70.00
2024-05-09T18:55:41.654Z,70.50
2024-05-09T18:58:11.204Z,71.10
2024-05-09T19:00:41.544Z,71.60
2024-05-09T19:03:13.295Z,71.80
2024-05-09T19:05:43.743Z,71.90
2024-05-09T19:08:12.740Z,72.70
2024-05-09T19:10:46.054Z,73.20
2024-05-09T19:13:16.519Z,73.60
2024-05-09T19:15:44.685Z,75.40
2024-05-09T19:18:15.503Z,74.50
2024-05-09T19:20:44.248Z,75.00
2024-05-09T19:23:12.004Z,75.50
2024-05-09T19:25:39.401Z,75.50
2024-05-09T19:28:06.744Z,75.70
2024-05-09T19:30:39.684Z,76.20
2024-05-09T19:33:11.170Z,75.90
2024-05-09T19:35:39.391Z,76.80
2024-05-09T19:38:06.638Z,77.10
2024-05-09T19:40:36.756Z,77.10
2024-05-09T19:43:05.595Z,77.90
2024-05-09T19:45:34.951Z,78.20
2024-05-09T19:48:06.763Z,78.60
2024-05-09T19:50:41.155Z,78.90
2024-05-09T19:53:12.218Z,79.30
2024-05-09T19:55:40.109Z,79.60
2024-05-09T19:58:08.332Z,79.80
2024-05-09T20:00:38.616Z,80.00
2024-05-09T20:03:08.095Z,80.00
2024-05-09T20:05:36.722Z,80.10
2024-05-09T20:08:07.644Z,80.40
2024-05-09T20:10:36.023Z,80.70
2024-05-09T20:13:06.432Z,81.10
2024-05-09T20:15:38.238Z,81.50
2024-05-09T20:18:06.471Z,82.00
2024-05-09T20:20:41.515Z,82.60
2024-05-09T20:23:12.373Z,83.10
2024-05-09T20:25:42.367Z,83.60
2024-05-09T20:28:11.889Z,84.00
2024-05-09T20:30:39.080Z,84.50
2024-05-09T20:33:08.046Z,85.00
2024-05-09T20:35:38.844Z,85.50
2024-05-09T20:38:06.161Z,85.90
2024-05-09T20:40:37.576Z,86.70
2024-05-09T20:43:07.955Z,87.00
2024-05-09T20:45:35.793Z,87.60
2024-05-09T20:48:03.181Z,88.10
2024-05-09T20:50:37.501Z,88.90
2024-05-09T20:53:09.869Z,89.40
2024-05-09T20:55:36.946Z,90.00
2024-05-09T20:58:04.144Z,90.30
2024-05-09T21:00:39.265Z,90.70
2024-05-09T21:03:09.865Z,90.80
2024-05-09T21:05:37.013Z,91.10
2024-05-09T21:08:04.263Z,91.40
2024-05-09T21:10:33.346Z,91.80
2024-05-09T21:13:02.681Z,92.00
2024-05-09T21:15:30.212Z,92.20
2024-05-09T21:17:57.047Z,92.40
2024-05-09T21:20:30.581Z,92.50
2024-05-09T21:22:59.303Z,92.70
2024-05-09T21:25:26.165Z,93.00
2024-05-09T21:27:53.185Z,93.10
2024-05-09T21:30:31.567Z,93.30
2024-05-09T21:33:08.428Z,93.40
2024-05-09T21:35:35.681Z,93.50
2024-05-09T21:38:02.476Z,93.70
2024-05-09T21:40:34.325Z,93.80
2024-05-09T21:43:03.496Z,94.40
2024-05-09T21:45:30.404Z,94.70
2024-05-09T21:47:57.492Z,95.00
2024-05-09T21:50:32.187Z,95.20
2024-05-09T21:53:06.111Z,95.40
2024-05-09T21:55:33.029Z,95.60
2024-05-09T21:57:59.838Z,96.00
2024-05-09T22:00:34.569Z,96.20
2024-05-09T22:03:04.880Z,96.50
2024-05-09T22:05:32.117Z,96.60
2024-05-09T22:07:59.090Z,96.80
2024-05-09T22:10:31.119Z,97.10
2024-05-09T22:13:01.779Z,97.20
2024-05-09T22:15:28.901Z,97.50
2024-05-09T22:17:57.382Z,97.70
2024-05-09T22:20:33.520Z,98.00
2024-05-09T22:23:04.438Z,97.70
2024-05-09T22:25:32.286Z,97.90
2024-05-09T22:28:00.297Z,98.00
2024-05-09T22:30:35.394Z,98.20
2024-05-09T22:33:07.001Z,98.50
2024-05-09T22:35:34.086Z,98.70
2024-05-09T22:38:01.133Z,98.90
2024-05-09T22:40:38.537Z,99.10
2024-05-09T22:43:13.799Z,99.30
2024-05-09T22:45:41.057Z,99.40
2024-05-09T22:48:09.015Z,99.40
2024-05-09T22:50:36.168Z,99.50
2024-05-09T22:53:02.964Z,99.50
2024-05-09T22:55:29.985Z,99.70
2024-05-09T22:57:56.912Z,99.90
2024-05-09T23:02:53.574Z,99.90
2024-05-09T23:05:20.587Z,99.90
2024-05-09T23:07:47.475Z,99.90
2024-05-09T23:10:21.213Z,99.90
2024-05-09T23:12:55.045Z,99.90
2024-05-09T23:15:22.008Z,99.90
2024-05-09T23:17:49.002Z,99.90
2024-05-09T23:20:21.798Z,99.90
2024-05-09T23:22:56.180Z,99.90
2024-05-09T23:25:22.994Z,99.90
2024-05-09T23:27:49.848Z,99.90
2024-05-09T23:30:28.321Z,99.90
2024-05-09T23:33:01.363Z,99.90
2024-05-09T23:35:28.338Z,99.90
2024-05-09T23:37:55.085Z,99.90
2024-05-09T23:40:23.481Z,99.90
2024-05-09T23:42:50.847Z,99.90
2024-05-09T23:45:17.661Z,99.90
2024-05-09T23:47:44.584Z,99.90
2024-05-09T23:50:16.924Z,99.90
2024-05-09T23:52:50.429Z,99.90
2024-05-09T23:55:17.412Z,99.90
2024-05-09T23:57:44.448Z,99.90
